createdAt,value
2023-01-22T00:01:08.465Z,35.10
2023-01-22T00:03:36.104Z,34.20
2023-01-22T00:06:02.958Z,34.80
2023-01-22T00:08:29.810Z,36.10
2023-01-22T00:10:56.592Z,34.30
2023-01-22T00:13:23.893Z,31.50
2023-01-22T00:15:50.994Z,34.80
2023-01-22T00:18:18.180Z,40.60
2023-01-22T00:20:48.468Z,33.40
2023-01-22T00:23:15.133Z,35.80
2023-01-22T00:25:41.864Z,36.00
2023-01-22T00:28:08.769Z,31.70
2023-01-22T00:30:35.485Z,36.20
2023-01-22T00:33:02.302Z,37.90
2023-01-22T00:35:28.891Z,34.70
2023-01-22T00:37:58.686Z,33.70
2023-01-22T00:40:25.187Z,35.40
2023-01-22T00:42:52.519Z,37.00
2023-01-22T00:45:21.883Z,35.80
2023-01-22T00:47:48.587Z,37.90
2023-01-22T00:50:16.037Z,34.40
2023-01-22T00:52:42.773Z,37.80
2023-01-22T00:55:09.370Z,36.90
2023-01-22T00:57:36.100Z,31.80
2023-01-22T01:00:03.366Z,38.80
2023-01-22T01:02:30.078Z,35.90
2023-01-22T01:04:57.014Z,37.70
2023-01-22T01:07:23.757Z,51.70
2023-01-22T01:09:54.081Z,43.10
2023-01-22T01:12:20.839Z,42.10
2023-01-22T01:14:47.421Z,40.10
2023-01-22T01:17:13.958Z,46.60
2023-01-22T01:19:40.548Z,49.00
2023-01-22T01:22:07.576Z,42.80
2023-01-22T01:24:35.956Z,43.90
2023-01-22T01:27:02.950Z,54.10
2023-01-22T01:29:29.542Z,51.50
2023-01-22T01:31:57.337Z,55.70
2023-01-22T01:34:24.437Z,56.50
2023-01-22T01:36:51.096Z,53.20
2023-01-22T01:39:18.444Z,55.60
2023-01-22T01:41:46.637Z,59.40
2023-01-22T01:44:15.523Z,58.90
2023-01-22T01:46:45.728Z,55.30
2023-01-22T01:49:31.746Z,59.50
2023-01-22T01:52:00.617Z,58.80
2023-01-22T01:54:27.433Z,50.80
2023-01-22T01:56:56.975Z,48.40
2023-01-22T01:59:23.859Z,54.00
2023-01-22T02:01:53.140Z,61.90
2023-01-22T02:04:20.043Z,55.40
2023-01-22T02:06:47.059Z,59.10
2023-01-22T02:09:13.969Z,56.10
2023-01-22T02:11:40.664Z,54.60
2023-01-22T02:14:17.611Z,61.40
2023-01-22T02:16:44.319Z,56.20
2023-01-22T02:19:11.015Z,48.40
2023-01-22T02:21:40.125Z,49.60
2023-01-22T02:24:11.743Z,55.20
2023-01-22T02:26:39.353Z,53.30
2023-01-22T02:29:07.451Z,46.70
2023-01-22T02:31:37.309Z,49.10
2023-01-22T02:34:05.253Z,52.00
2023-01-22T02:36:33.493Z,50.80
2023-01-22T02:39:00.214Z,50.40
2023-01-22T02:41:26.920Z,50.30
2023-01-22T02:43:53.595Z,57.20
2023-01-22T02:46:21.734Z,41.30
2023-01-22T02:48:49.734Z,48.90
2023-01-22T02:51:16.581Z,48.20
2023-01-22T02:53:44.495Z,47.10
2023-01-22T02:56:11.483Z,54.90
2023-01-22T02:58:39.157Z,50.50
2023-01-22T03:01:20.983Z,54.00
2023-01-22T03:03:55.662Z,49.80
2023-01-22T03:06:25.591Z,57.90
2023-01-22T03:08:56.878Z,59.70
2023-01-22T03:11:24.497Z,51.80
2023-01-22T03:14:11.215Z,56.60
2023-01-22T03:16:56.989Z,46.50
2023-01-22T03:19:42.782Z,47.10
2023-01-22T03:22:15.072Z,52.60
2023-01-22T03:24:43.142Z,57.90
2023-01-22T03:27:10.340Z,58.30
2023-01-22T03:29:37.725Z,54.20
2023-01-22T03:32:06.283Z,53.40
2023-01-22T03:34:35.182Z,46.50
2023-01-22T03:37:04.279Z,55.00
2023-01-22T03:39:34.614Z,46.00
2023-01-22T03:42:02.377Z,55.60
2023-01-22T03:44:29.607Z,52.40
2023-01-22T03:46:56.493Z,50.50
2023-01-22T03:49:23.687Z,48.00
2023-01-22T03:51:52.207Z,56.40
2023-01-22T03:54:21.102Z,47.10
2023-01-22T03:56:48.129Z,45.10
2023-01-22T03:59:20.487Z,44.30
2023-01-22T04:01:47.256Z,46.80
2023-01-22T04:04:13.937Z,48.00
2023-01-22T04:06:42.699Z,43.50
2023-01-22T04:09:09.633Z,50.90
2023-01-22T04:11:45.681Z,48.30
2023-01-22T04:14:14.278Z,54.90
2023-01-22T04:16:47.258Z,54.10
2023-01-22T04:19:34.745Z,54.70
2023-01-22T04:22:20.053Z,54.40
2023-01-22T04:24:48.761Z,53.50
2023-01-22T04:27:15.812Z,57.50
2023-01-22T04:29:42.445Z,48.70
2023-01-22T04:32:08.994Z,45.40
2023-01-22T04:35:03.459Z,46.50
2023-01-22T04:37:37.567Z,44.70
2023-01-22T04:40:05.136Z,48.00
2023-01-22T04:42:34.236Z,43.60
2023-01-22T04:45:00.975Z,46.40
2023-01-22T04:47:29.741Z,49.20
2023-01-22T04:49:56.309Z,46.40
2023-01-22T04:52:22.946Z,46.10
2023-01-22T04:54:51.508Z,61.80
2023-01-22T04:57:18.160Z,60.10
2023-01-22T04:59:44.987Z,58.90
2023-01-22T05:02:11.871Z,56.90
2023-01-22T05:04:38.629Z,75.50
2023-01-22T05:07:06.019Z,78.30
2023-01-22T05:09:32.770Z,65.10
2023-01-22T05:12:00.423Z,71.00
2023-01-22T05:14:31.170Z,78.50
2023-01-22T05:16:58.507Z,86.60
2023-01-22T05:19:25.214Z,78.80
2023-01-22T05:21:53.286Z,75.60
2023-01-22T05:24:20.018Z,73.60
2023-01-22T05:26:46.614Z,81.30
2023-01-22T05:29:18.257Z,76.90
2023-01-22T05:31:57.603Z,73.50
2023-01-22T05:34:29.560Z,81.70
2023-01-22T05:36:56.635Z,84.70
2023-01-22T05:39:25.429Z,83.10
2023-01-22T05:41:53.990Z,75.70
2023-01-22T05:44:20.685Z,73.60
2023-01-22T05:46:52.071Z,86.20
2023-01-22T05:49:26.254Z,73.80
2023-01-22T05:51:56.704Z,66.90
2023-01-22T05:54:23.444Z,63.80
2023-01-22T05:56:50.627Z,64.60
2023-01-22T05:59:18.057Z,66.70
2023-01-22T06:01:51.412Z,53.50
2023-01-22T06:04:18.328Z,61.50
2023-01-22T06:06:46.494Z,49.00
2023-01-22T06:09:13.613Z,51.00
2023-01-22T07:20:33.545Z,32.10
2023-01-22T07:23:00.448Z,31.60
2023-01-22T07:25:27.462Z,31.20
2023-01-22T07:28:01.241Z,30.20
2023-01-22T07:30:28.568Z,31.70
2023-01-22T07:32:59.769Z,38.00
2023-01-22T07:35:27.825Z,33.90
2023-01-22T07:37:56.279Z,37.60
2023-01-22T07:40:23.947Z,38.30
2023-01-22T07:42:51.259Z,40.00
2023-01-22T07:45:19.104Z,33.80
2023-01-22T07:47:53.951Z,33.10
2023-01-22T07:50:21.617Z,38.30
2023-01-22T07:52:48.172Z,42.20
2023-01-22T07:55:14.715Z,37.70
2023-01-22T07:57:41.406Z,46.80
2023-01-22T08:00:12.277Z,45.30
2023-01-22T08:02:43.661Z,43.70
2023-01-22T08:05:10.618Z,42.50
2023-01-22T08:07:37.785Z,41.10
2023-01-22T08:10:05.232Z,35.70
2023-01-22T08:12:31.965Z,32.60
2023-01-22T08:14:58.574Z,35.60
2023-01-22T08:17:25.243Z,37.70
2023-01-22T08:19:51.891Z,35.00
2023-01-22T08:22:18.565Z,38.80
2023-01-22T08:24:45.181Z,31.10
2023-01-22T08:27:11.795Z,34.80
2023-01-22T08:29:39.837Z,31.80
2023-01-22T08:32:06.921Z,32.60
2023-01-22T08:34:33.792Z,34.30
2023-01-22T08:37:00.318Z,33.80
2023-01-22T08:39:27.699Z,36.30
2023-01-22T08:41:58.210Z,35.40
2023-01-22T08:44:25.124Z,33.40
2023-01-22T08:46:51.886Z,39.50
2023-01-22T08:49:20.727Z,40.70
2023-01-22T08:51:48.033Z,44.30
2023-01-22T08:54:19.214Z,45.90
2023-01-22T08:56:47.417Z,37.60
2023-01-22T08:59:14.538Z,35.50
2023-01-22T09:01:41.315Z,36.90
2023-01-22T09:04:08.795Z,40.20
2023-01-22T09:06:36.458Z,39.40
2023-01-22T09:09:03.291Z,46.70
2023-01-22T09:11:30.840Z,49.00
2023-01-22T09:13:58.234Z,46.50
2023-01-22T09:16:25.759Z,49.20
2023-01-22T09:18:52.993Z,40.10
2023-01-22T09:21:19.720Z,62.10
2023-01-22T09:23:46.302Z,57.30
2023-01-22T09:26:13.189Z,45.40
2023-01-22T09:28:40.068Z,42.80
2023-01-22T09:31:06.805Z,46.00
2023-01-22T09:33:33.749Z,57.70
2023-01-22T09:36:10.745Z,42.40
2023-01-22T09:38:37.800Z,46.10
2023-01-22T09:41:18.958Z,42.00
2023-01-22T09:43:54.699Z,42.60
2023-01-22T09:46:28.293Z,50.10
2023-01-22T09:49:09.990Z,39.80
2023-01-22T09:51:37.090Z,38.90
2023-01-22T09:54:04.121Z,41.20
2023-01-22T09:56:45.281Z,37.10
2023-01-22T09:59:32.070Z,41.40
2023-01-22T10:02:03.789Z,40.10
2023-01-22T10:04:38.972Z,41.60
2023-01-22T10:07:08.452Z,43.60
2023-01-22T10:09:39.323Z,32.60
2023-01-22T10:12:12.239Z,30.80
2023-01-22T10:14:39.206Z,34.80
2023-01-22T10:17:15.437Z,33.00
2023-01-22T10:19:43.754Z,45.60
2023-01-22T10:22:18.107Z,30.90
2023-01-22T10:24:44.633Z,28.90
2023-01-22T10:27:13.223Z,33.10
2023-01-22T10:29:40.026Z,35.00
2023-01-22T10:32:24.750Z,27.50
2023-01-22T10:35:10.317Z,29.20
2023-01-22T10:37:45.138Z,46.00
2023-01-22T10:40:22.727Z,42.30
2023-01-22T10:43:00.475Z,30.60
2023-01-22T10:45:27.373Z,31.10
2023-01-22T10:48:12.635Z,35.70
2023-01-22T10:50:39.657Z,46.30
2023-01-22T10:53:20.445Z,41.60
2023-01-22T10:55:55.086Z,32.60
2023-01-22T10:58:23.805Z,35.80
2023-01-22T11:00:59.275Z,37.70
2023-01-22T11:03:32.207Z,36.50
2023-01-22T11:06:30.293Z,39.30
2023-01-22T11:09:30.805Z,31.90
2023-01-22T11:12:02.870Z,34.30
2023-01-22T11:14:34.030Z,38.40
2023-01-22T11:17:15.180Z,36.00
2023-01-22T11:19:46.291Z,41.80
2023-01-22T11:22:32.815Z,32.20
2023-01-22T11:24:59.884Z,44.50
2023-01-22T11:27:31.031Z,33.10
2023-01-22T11:30:07.019Z,35.60
2023-01-22T11:32:38.332Z,38.20
2023-01-22T11:35:05.075Z,40.90
2023-01-22T11:38:11.047Z,54.80
2023-01-22T11:40:59.744Z,33.40
2023-01-22T11:43:45.583Z,30.10
2023-01-22T11:46:21.104Z,41.10
2023-01-22T11:48:53.782Z,37.00
2023-01-22T11:51:37.868Z,37.50
2023-01-22T11:54:21.838Z,35.50
2023-01-22T11:56:59.555Z,41.00
2023-01-22T11:59:46.979Z,45.00
2023-01-22T12:02:38.559Z,45.00
2023-01-22T12:05:25.045Z,40.60
2023-01-22T12:08:17.316Z,43.70
2023-01-22T12:10:52.940Z,48.70
2023-01-22T12:13:46.738Z,45.30
2023-01-22T12:16:26.160Z,37.20
2023-01-22T12:21:22.279Z,35.60
2023-01-22T12:23:59.059Z,34.90
2023-01-22T12:26:29.220Z,33.30
2023-01-22T12:29:01.982Z,34.20
2023-01-22T12:31:34.003Z,35.20
2023-01-22T12:34:02.649Z,36.80
2023-01-22T12:36:32.430Z,35.80
2023-01-22T12:39:00.718Z,34.90
2023-01-22T12:41:32.654Z,39.60
2023-01-22T12:44:06.017Z,39.70
2023-01-22T12:46:38.808Z,41.70
2023-01-22T12:49:07.962Z,36.80
2023-01-22T12:51:39.575Z,41.60
2023-01-22T12:54:29.978Z,38.40
2023-01-22T12:57:20.823Z,45.00
2023-01-22T12:59:52.235Z,35.00
2023-01-22T13:02:25.791Z,43.10
2023-01-22T13:04:53.203Z,51.20
2023-01-22T13:07:21.124Z,44.70
2023-01-22T13:09:48.525Z,33.00
2023-01-22T13:12:26.387Z,36.40
2023-01-22T13:14:53.296Z,42.40
2023-01-22T13:17:24.512Z,42.00
2023-01-22T13:19:51.336Z,43.80
2023-01-22T13:22:23.303Z,37.10
2023-01-22T13:24:53.123Z,42.30
2023-01-22T13:27:25.726Z,41.20
2023-01-22T13:29:52.393Z,35.60
2023-01-22T13:32:21.432Z,30.80
2023-01-22T13:34:48.578Z,22.30
2023-01-22T13:37:26.077Z,36.60
2023-01-22T13:39:54.224Z,35.10
2023-01-22T13:42:23.921Z,30.50
2023-01-22T13:44:51.010Z,31.70
2023-01-22T13:47:31.467Z,34.90
2023-01-22T13:49:58.203Z,34.30
2023-01-22T13:52:24.956Z,34.50
2023-01-22T13:55:04.819Z,40.60
2023-01-22T13:57:32.618Z,42.90
2023-01-22T14:00:00.596Z,44.10
2023-01-22T14:02:34.044Z,44.20
2023-01-22T14:05:00.771Z,39.40
2023-01-22T14:07:32.304Z,33.20
2023-01-22T14:10:21.436Z,44.40
2023-01-22T14:13:16.189Z,39.60
2023-01-22T14:15:53.826Z,35.30
2023-01-22T14:18:21.138Z,35.40
2023-01-22T14:20:48.089Z,29.90
2023-01-22T14:23:15.137Z,31.20
2023-01-22T14:25:46.813Z,44.70
2023-01-22T14:28:14.067Z,38.80
2023-01-22T14:30:41.112Z,27.80
2023-01-22T14:33:24.204Z,47.40
2023-01-22T14:35:51.939Z,50.70
2023-01-22T14:38:18.701Z,38.10
2023-01-22T14:40:45.442Z,40.80
2023-01-22T14:43:12.333Z,41.50
2023-01-22T14:45:42.731Z,45.00
2023-01-22T14:48:16.303Z,42.10
2023-01-22T14:50:43.393Z,38.60
2023-01-22T14:53:10.623Z,37.20
2023-01-22T14:55:37.453Z,42.60
2023-01-22T14:58:05.539Z,42.80
2023-01-22T15:00:32.694Z,37.90
2023-01-22T15:02:59.429Z,36.50
2023-01-22T15:05:26.403Z,41.50
2023-01-22T15:07:53.063Z,41.20
2023-01-22T15:10:20.107Z,41.50
2023-01-22T15:12:48.749Z,39.20
2023-01-22T15:15:16.052Z,36.10
2023-01-22T15:17:42.694Z,38.50
2023-01-22T15:20:10.279Z,36.20
2023-01-22T15:22:37.286Z,48.60
2023-01-22T15:25:05.121Z,44.40
2023-01-22T15:27:32.138Z,39.40
2023-01-22T15:29:59.298Z,39.10
2023-01-22T15:32:26.128Z,42.20
2023-01-22T15:34:52.798Z,38.20
2023-01-22T15:37:19.360Z,32.90
2023-01-22T15:39:50.350Z,36.40
2023-01-22T15:42:17.397Z,41.60
2023-01-22T15:44:44.440Z,40.20
2023-01-22T15:47:14.011Z,34.80
2023-01-22T15:49:40.791Z,33.60
2023-01-22T15:52:07.634Z,35.00
2023-01-22T15:54:34.472Z,31.70
2023-01-22T15:57:01.650Z,30.30
2023-01-22T15:59:28.635Z,33.60
2023-01-22T16:01:55.518Z,35.80
2023-01-22T16:04:22.869Z,37.60
2023-01-22T16:06:51.459Z,38.50
2023-01-22T16:09:18.397Z,27.10
2023-01-22T16:11:45.412Z,40.60
2023-01-22T16:14:12.498Z,33.10
2023-01-22T16:16:39.771Z,33.30
2023-01-22T16:19:07.306Z,31.00
2023-01-22T16:21:34.464Z,30.20
2023-01-22T16:24:01.308Z,40.70
2023-01-22T16:26:29.910Z,32.10
2023-01-22T16:28:57.553Z,34.90
2023-01-22T16:31:27.254Z,32.00
2023-01-22T16:33:55.695Z,33.30
2023-01-22T16:36:24.109Z,25.70
2023-01-22T16:38:51.412Z,26.00
2023-01-22T16:41:24.512Z,25.70
2023-01-22T16:43:57.212Z,30.00
2023-01-22T16:46:25.540Z,30.80
2023-01-22T16:49:03.108Z,28.60
2023-01-22T16:51:34.458Z,29.40
2023-01-22T16:54:01.301Z,32.30
2023-01-22T16:56:28.366Z,31.70
2023-01-22T16:58:55.384Z,29.80
2023-01-22T17:01:22.124Z,24.10
2023-01-22T17:03:49.233Z,25.20
2023-01-22T17:06:28.244Z,24.40
2023-01-22T17:08:55.077Z,24.30
2023-01-22T17:11:22.298Z,24.60
2023-01-22T17:13:49.342Z,24.10
2023-01-22T17:16:16.318Z,29.70
2023-01-22T17:18:43.901Z,27.00
2023-01-22T17:21:16.325Z,26.10
2023-01-22T17:23:43.468Z,29.80
2023-01-22T17:26:11.743Z,30.30
2023-01-22T17:28:39.305Z,30.70
2023-01-22T17:31:07.503Z,33.30
2023-01-22T17:33:35.139Z,27.70
2023-01-22T17:36:03.418Z,31.40
2023-01-22T17:38:32.305Z,30.70
2023-01-22T17:41:10.259Z,34.10
2023-01-22T17:43:38.181Z,33.20
2023-01-22T17:46:11.406Z,28.80
2023-01-22T17:48:40.377Z,30.60
2023-01-22T17:53:37.663Z,29.30
2023-01-22T17:56:08.143Z,28.20
2023-01-22T17:58:34.878Z,34.00
2023-01-22T18:01:07.965Z,33.10
2023-01-22T18:03:35.443Z,31.30
2023-01-22T20:21:33.154Z,31.10
2023-01-22T20:24:00.201Z,40.10
2023-01-22T20:26:27.153Z,42.20
2023-01-22T20:28:54.161Z,41.40
2023-01-22T20:31:23.473Z,42.90
2023-01-22T20:33:54.859Z,31.70
2023-01-22T20:36:22.120Z,35.30
2023-01-22T20:38:52.568Z,38.40
2023-01-22T20:41:20.100Z,35.80
2023-01-22T20:43:47.229Z,40.10
2023-01-22T20:46:18.480Z,42.50
2023-01-22T20:48:46.138Z,33.00
2023-01-22T20:51:15.845Z,43.20
2023-01-22T20:53:43.721Z,42.10
2023-01-22T20:56:13.452Z,43.60
2023-01-22T20:58:40.326Z,38.50
2023-01-22T21:01:19.329Z,36.80
2023-01-22T21:03:47.481Z,39.70
2023-01-22T21:06:16.664Z,46.20
2023-01-22T21:08:43.937Z,42.40
2023-01-22T21:11:12.406Z,32.60
2023-01-22T21:13:39.655Z,33.30
2023-01-22T21:16:18.692Z,34.40
2023-01-22T21:18:46.419Z,34.90
2023-01-22T21:21:17.905Z,39.20
2023-01-22T21:23:46.189Z,37.70
2023-01-22T21:26:15.444Z,35.40
2023-01-22T21:28:42.519Z,37.30
2023-01-22T21:31:11.337Z,33.30
2023-01-22T21:33:38.678Z,31.50
2023-01-22T21:36:06.700Z,31.30
2023-01-22T21:38:33.977Z,22.50
2023-01-22T21:41:05.209Z,37.70
2023-01-22T21:43:50.763Z,36.60
2023-01-22T21:46:25.321Z,30.20
2023-01-22T21:49:01.174Z,32.10
2023-01-22T21:51:29.251Z,31.60
2023-01-22T21:53:56.941Z,31.80
2023-01-22T21:56:24.065Z,32.60
2023-01-22T21:58:50.891Z,31.70
2023-01-22T22:01:19.305Z,34.20
2023-01-22T22:03:46.123Z,32.50
2023-01-22T22:06:13.520Z,34.10
2023-01-22T22:08:43.316Z,35.90
2023-01-22T22:11:10.924Z,30.70
2023-01-22T22:13:38.105Z,27.70
2023-01-22T22:16:06.991Z,29.80
2023-01-22T22:18:34.047Z,29.00
2023-01-22T22:21:03.601Z,30.50
2023-01-22T22:23:30.890Z,32.80
2023-01-22T22:25:57.924Z,29.50
2023-01-22T22:28:25.075Z,34.30
2023-01-22T22:30:51.964Z,33.80
2023-01-22T22:33:19.076Z,36.20
2023-01-22T22:35:46.614Z,35.00
2023-01-22T22:38:14.193Z,36.50
2023-01-22T22:40:41.159Z,41.00
2023-01-22T22:43:09.012Z,32.80
2023-01-22T22:45:37.744Z,27.60
2023-01-22T22:48:05.482Z,28.90
2023-01-22T22:50:32.425Z,27.80
2023-01-22T22:52:59.263Z,32.20
2023-01-22T22:55:28.695Z,28.90
2023-01-22T22:57:55.728Z,27.50
2023-01-22T23:00:23.268Z,32.60
2023-01-22T23:02:50.727Z,29.60
2023-01-22T23:05:17.575Z,29.80
2023-01-22T23:07:44.347Z,31.50
2023-01-22T23:10:28.862Z,29.20
2023-01-22T23:12:57.655Z,30.50
2023-01-22T23:15:25.938Z,28.00
2023-01-22T23:17:54.189Z,30.20
2023-01-22T23:20:21.517Z,32.40
2023-01-22T23:22:49.760Z,36.40
2023-01-22T23:25:17.131Z,34.00
2023-01-22T23:27:44.263Z,30.30
2023-01-22T23:30:12.415Z,30.30
2023-01-22T23:32:39.777Z,27.60
2023-01-22T23:35:06.975Z,34.10
2023-01-22T23:37:33.843Z,29.80
2023-01-22T23:40:00.709Z,28.00
2023-01-22T23:42:27.651Z,33.90
2023-01-22T23:44:54.493Z,25.70
2023-01-22T23:47:24.614Z,27.30
2023-01-22T23:49:51.937Z,30.90
2023-01-22T23:52:18.787Z,38.80
2023-01-22T23:54:45.650Z,34.10
2023-01-22T23:57:12.461Z,33.90
2023-01-22T23:59:39.338Z,31.20
